createdAt,value
2019-04-05T00:00:00.386Z,7.83
2019-04-05T00:02:31.763Z,7.83
2019-04-05T00:05:03.383Z,7.83
2019-04-05T00:07:35.286Z,7.86
2019-04-05T00:10:08.333Z,7.84
2019-04-05T00:12:40.494Z,7.87
2019-04-05T00:15:15.469Z,7.86
2019-04-05T00:17:45.836Z,7.88
2019-04-05T00:20:17.847Z,7.87
2019-04-05T00:22:49.884Z,7.85
2019-04-05T00:25:21.706Z,7.86
2019-04-05T00:27:53.510Z,7.88
2019-04-05T00:30:25.326Z,7.87
2019-04-05T00:32:57.264Z,7.84
2019-04-05T00:35:28.684Z,7.82
2019-04-05T00:38:00.433Z,7.82
2019-04-05T00:40:32.446Z,7.83
2019-04-05T00:43:04.151Z,7.82
2019-04-05T00:45:35.523Z,7.78
2019-04-05T00:48:08.131Z,7.79
2019-04-05T00:50:39.511Z,7.74
2019-04-05T00:53:42.307Z,7.78
2019-04-05T00:56:28.772Z,7.75
2019-04-05T00:59:03.788Z,7.75
2019-04-05T01:01:51.427Z,7.76
2019-04-05T01:04:51.118Z,7.68
2019-04-05T01:07:46.271Z,7.69
2019-04-05T01:11:02.984Z,7.69
2019-04-05T02:13:09.745Z,6.82
2019-04-05T02:15:42.498Z,6.84
2019-04-05T02:18:13.819Z,6.85
2019-04-05T02:20:45.610Z,6.86
2019-04-05T02:23:16.818Z,6.89
2019-04-05T02:25:48.167Z,6.95
2019-04-05T02:28:19.495Z,7.00
2019-04-05T02:30:51.490Z,7.03
2019-04-05T02:33:23.114Z,7.07
2019-04-05T02:35:54.519Z,7.09
2019-04-05T02:38:26.165Z,7.11
2019-04-05T02:41:01.480Z,7.14
2019-04-05T02:43:35.821Z,7.16
2019-04-05T02:46:22.820Z,7.22
2019-04-05T02:48:46.138Z,7.24
2019-04-05T02:51:22.526Z,7.19
2019-04-05T02:53:56.055Z,7.28
2019-04-05T02:56:31.546Z,7.30
2019-04-05T02:59:05.186Z,7.31
2019-04-05T03:01:37.381Z,7.31
2019-04-05T03:04:09.386Z,7.31
2019-04-05T03:06:42.165Z,7.30
2019-04-05T03:09:14.690Z,7.35
2019-04-05T03:11:46.594Z,7.37
2019-04-05T03:14:18.848Z,7.39
2019-04-05T03:16:54.563Z,7.37
2019-04-05T03:19:32.291Z,7.37
2019-04-05T03:22:10.667Z,7.39
2019-04-05T03:24:46.376Z,7.40
2019-04-05T03:27:24.722Z,7.42
2019-04-05T03:29:56.634Z,7.43
2019-04-05T03:32:29.752Z,7.40
2019-04-05T03:35:01.236Z,7.41
2019-04-05T03:37:32.761Z,7.40
2019-04-05T03:40:04.605Z,7.41
2019-04-05T03:42:36.605Z,7.41
2019-04-05T03:45:08.236Z,7.42
2019-04-05T03:47:39.610Z,7.43
2019-04-05T03:50:11.118Z,7.42
2019-04-05T03:52:42.831Z,7.44
2019-04-05T03:55:14.223Z,7.46
2019-04-05T03:57:45.618Z,7.46
2019-04-05T04:00:17.088Z,7.44
2019-04-05T04:02:48.407Z,7.42
2019-04-05T04:05:19.787Z,7.45
2019-04-05T04:07:51.358Z,7.43
2019-04-05T04:10:25.548Z,7.42
2019-04-05T04:12:57.331Z,7.44
2019-04-05T04:15:30.543Z,7.43
2019-04-05T04:18:01.982Z,7.43
2019-04-05T04:20:42.650Z,7.40
2019-04-05T04:23:15.659Z,7.40
2019-04-05T04:25:48.121Z,7.45
2019-04-05T04:28:20.210Z,7.43
2019-04-05T04:31:07.388Z,7.42
2019-04-05T04:33:52.147Z,7.43
2019-04-05T04:36:40.986Z,7.42
2019-04-05T04:39:13.047Z,7.41
2019-04-05T04:41:49.673Z,7.40
2019-04-05T04:44:29.729Z,7.44
2019-04-05T04:47:07.427Z,7.44
2019-04-05T04:49:43.623Z,7.40
2019-04-05T04:52:23.158Z,7.42
2019-04-05T04:54:54.781Z,7.41
2019-04-05T04:57:26.191Z,7.42
2019-04-05T04:59:57.649Z,7.42
2019-04-05T05:02:32.255Z,7.41
2019-04-05T05:05:04.227Z,7.41
2019-04-05T05:07:36.523Z,7.42
2019-04-05T05:10:09.138Z,7.45
2019-04-05T05:12:40.753Z,7.43
2019-04-05T05:15:13.747Z,7.47
2019-04-05T05:17:57.727Z,7.46
2019-04-05T05:20:19.835Z,7.45
2019-04-05T05:22:51.677Z,7.48
2019-04-05T05:25:24.003Z,7.46
2019-04-05T05:27:55.816Z,7.47
2019-04-05T05:30:29.178Z,7.48
2019-04-05T05:33:00.688Z,7.48
2019-04-05T05:35:33.301Z,7.48
2019-04-05T05:38:05.606Z,7.49
2019-04-05T05:40:37.375Z,7.46
2019-04-05T05:43:09.237Z,7.47
2019-04-05T05:45:41.691Z,7.48
2019-04-05T05:48:13.794Z,7.48
2019-04-05T05:50:45.637Z,7.52
2019-04-05T05:53:17.088Z,7.52
2019-04-05T05:55:48.511Z,7.52
2019-04-05T05:58:20.170Z,7.54
2019-04-05T06:00:51.520Z,7.53
2019-04-05T06:03:23.179Z,7.58
2019-04-05T06:08:29.267Z,7.63
2019-04-05T06:11:00.800Z,7.63
2019-04-05T06:13:32.883Z,7.63
2019-04-05T06:16:04.197Z,7.62
2019-04-05T06:18:35.768Z,7.67
2019-04-05T06:21:07.603Z,7.68
2019-04-05T06:23:41.732Z,7.69
2019-04-05T06:26:12.497Z,7.68
2019-04-05T06:28:44.551Z,7.70
2019-04-05T06:31:16.064Z,7.71
2019-04-05T06:33:47.399Z,7.75
2019-04-05T06:36:19.388Z,7.78
2019-04-05T06:38:51.541Z,7.80
2019-04-05T06:41:22.909Z,7.82
2019-04-05T06:43:55.304Z,7.87
2019-04-05T06:46:26.748Z,7.85
2019-04-05T06:48:58.134Z,7.89
2019-04-05T06:51:29.442Z,7.90
2019-04-05T06:54:03.390Z,7.91
2019-04-05T06:56:34.555Z,7.88
2019-04-05T06:59:06.195Z,7.91
2019-04-05T07:01:37.927Z,7.96
2019-04-05T07:04:09.584Z,7.96
2019-04-05T07:06:41.289Z,8.00
2019-04-05T07:09:13.392Z,8.02
2019-04-05T07:11:44.899Z,8.05
2019-04-05T07:14:17.071Z,8.07
2019-04-05T07:16:49.110Z,8.09
2019-04-05T07:19:20.758Z,8.08
2019-04-05T07:21:53.018Z,8.09
2019-04-05T07:24:24.404Z,8.14
2019-04-05T07:26:55.706Z,8.16
2019-04-05T07:29:27.027Z,8.19
2019-04-05T07:31:59.037Z,8.19
2019-04-05T07:34:31.567Z,8.22
2019-04-05T07:37:02.919Z,8.20
2019-04-05T07:39:34.709Z,8.25
2019-04-05T07:42:06.104Z,8.26
2019-04-05T07:44:37.400Z,8.31
2019-04-05T07:47:10.194Z,8.27
2019-04-05T07:49:41.488Z,8.26
2019-04-05T07:52:13.185Z,8.30
2019-04-05T07:54:44.621Z,8.28
2019-04-05T07:57:15.915Z,8.33
2019-04-05T07:59:47.952Z,8.34
2019-04-05T08:02:20.624Z,8.36
2019-04-05T08:04:54.744Z,8.36
2019-04-05T08:07:32.151Z,8.35
2019-04-05T08:10:04.709Z,8.45
2019-04-05T08:12:37.044Z,8.45
2019-04-05T08:15:09.277Z,8.45
2019-04-05T08:17:40.942Z,8.52
2019-04-05T08:20:12.341Z,8.48
2019-04-05T08:22:44.423Z,8.55
2019-04-05T08:25:16.494Z,8.55
2019-04-05T08:27:48.303Z,8.54
2019-04-05T08:30:20.266Z,8.60
2019-04-05T08:32:52.371Z,8.61
2019-04-05T08:35:24.030Z,8.58
2019-04-05T08:37:55.751Z,8.65
2019-04-05T08:40:27.480Z,8.65
2019-04-05T08:42:58.975Z,8.66
2019-04-05T08:45:30.749Z,8.61
2019-04-05T08:48:02.458Z,8.59
2019-04-05T08:50:33.768Z,8.67
2019-04-05T08:53:05.163Z,8.69
2019-04-05T08:55:36.597Z,8.65
2019-04-05T08:58:08.551Z,8.68
2019-04-05T09:00:40.264Z,8.73
2019-04-05T09:03:12.450Z,8.78
2019-04-05T09:05:44.104Z,8.73
2019-04-05T09:08:16.156Z,8.85
2019-04-05T09:10:48.323Z,8.86
2019-04-05T09:13:20.369Z,8.85
2019-04-05T09:15:51.740Z,8.92
2019-04-05T09:18:23.180Z,8.90
2019-04-05T09:20:54.473Z,8.88
2019-04-05T09:23:26.284Z,8.87
2019-04-05T09:25:57.690Z,8.95
2019-04-05T09:28:29.384Z,8.97
2019-04-05T09:31:01.151Z,9.04
2019-04-05T09:33:32.889Z,9.09
2019-04-05T09:36:04.571Z,9.07
2019-04-05T09:38:36.319Z,9.06
2019-04-05T09:41:08.523Z,9.07
2019-04-05T09:43:40.260Z,8.97
2019-04-05T09:46:12.045Z,9.06
2019-04-05T09:48:43.602Z,9.20
2019-04-05T09:51:15.312Z,9.16
2019-04-05T09:53:46.678Z,9.25
2019-04-05T09:56:18.036Z,9.27
2019-04-05T09:58:51.200Z,9.25
2019-04-05T10:01:22.569Z,9.33
2019-04-05T10:03:54.228Z,9.29
2019-04-05T10:06:26.583Z,9.30
2019-04-05T10:08:58.201Z,9.37
2019-04-05T10:11:29.743Z,9.29
2019-04-05T10:14:01.124Z,9.41
2019-04-05T10:16:34.139Z,9.30
2019-04-05T10:19:05.916Z,9.30
2019-04-05T10:21:37.642Z,9.31
2019-04-05T10:24:09.142Z,9.34
2019-04-05T10:26:40.939Z,9.46
2019-04-05T10:29:12.262Z,9.53
2019-04-05T10:31:44.247Z,9.50
2019-04-05T10:34:16.048Z,9.43
2019-04-05T10:36:47.958Z,9.47
2019-04-05T10:39:20.016Z,9.52
2019-04-05T10:42:02.729Z,9.58
2019-04-05T10:44:25.217Z,9.59
2019-04-05T10:46:57.037Z,9.54
2019-04-05T10:49:28.773Z,9.43
2019-04-05T10:52:00.084Z,9.57
2019-04-05T10:54:32.558Z,9.60
2019-04-05T10:57:04.692Z,9.61
2019-04-05T10:59:38.515Z,9.71
2019-04-05T11:02:09.436Z,9.62
2019-04-05T11:04:40.722Z,9.64
2019-04-05T11:07:12.006Z,9.61
2019-04-05T11:09:43.438Z,9.65
2019-04-05T11:12:15.031Z,9.59
2019-04-05T11:14:46.631Z,9.70
2019-04-05T11:17:18.461Z,9.73
2019-04-05T11:19:50.877Z,9.67
2019-04-05T11:22:22.309Z,9.78
2019-04-05T11:24:54.362Z,9.76
2019-04-05T11:27:25.730Z,9.78
2019-04-05T11:29:57.978Z,9.77
2019-04-05T11:32:29.821Z,9.74
2019-04-05T11:35:01.343Z,9.74
2019-04-05T11:37:33.335Z,9.81
2019-04-05T11:40:06.219Z,9.85
2019-04-05T11:42:41.694Z,9.83
2019-04-05T11:45:13.629Z,9.90
2019-04-05T11:47:46.107Z,9.99
2019-04-05T11:50:17.940Z,9.99
2019-04-05T11:52:49.221Z,9.89
2019-04-05T11:55:20.629Z,9.96
2019-04-05T11:57:54.709Z,9.82
2019-04-05T12:00:32.907Z,9.91
2019-04-05T12:03:09.719Z,9.85
2019-04-05T12:05:40.903Z,9.44
2019-04-05T12:08:12.512Z,9.79
2019-04-05T12:10:44.204Z,9.78
2019-04-05T12:13:16.089Z,9.78
2019-04-05T12:15:47.430Z,9.97
2019-04-05T12:18:19.664Z,9.94
2019-04-05T12:20:59.629Z,10.04
2019-04-05T12:23:24.544Z,10.09
2019-04-05T12:25:55.848Z,9.93
2019-04-05T12:28:27.296Z,9.95
2019-04-05T12:30:58.662Z,10.36
2019-04-05T12:33:29.968Z,10.58
2019-04-05T12:36:01.667Z,10.86
2019-04-05T12:38:33.456Z,10.93
2019-04-05T12:41:10.701Z,11.31
2019-04-05T12:43:43.973Z,11.45
2019-04-05T12:46:15.906Z,11.55
2019-04-05T12:48:46.593Z,11.86
2019-04-05T12:51:18.300Z,11.77
2019-04-05T12:53:50.027Z,12.08
2019-04-05T12:56:22.408Z,12.42
2019-04-05T12:58:57.477Z,12.54
2019-04-05T13:01:28.781Z,12.74
2019-04-05T13:04:00.122Z,12.72
2019-04-05T13:06:32.236Z,12.72
2019-04-05T13:09:06.162Z,12.61
2019-04-05T13:11:37.660Z,12.65
2019-04-05T13:14:09.046Z,12.52
2019-04-05T13:16:40.928Z,12.52
2019-04-05T13:19:15.271Z,12.46
2019-04-05T13:21:47.489Z,12.75
2019-04-05T13:24:18.957Z,12.75
2019-04-05T13:26:50.598Z,12.54
2019-04-05T13:29:21.966Z,12.49
2019-04-05T13:31:53.647Z,12.89
2019-04-05T13:34:26.034Z,12.99
2019-04-05T13:36:59.299Z,12.39
2019-04-05T13:39:31.531Z,12.91
2019-04-05T13:42:03.360Z,12.68
2019-04-05T13:44:35.476Z,12.74
2019-04-05T13:47:08.478Z,12.86
2019-04-05T13:49:40.762Z,12.88
2019-04-05T13:52:13.190Z,12.46
2019-04-05T13:54:44.512Z,12.42
2019-04-05T13:57:15.894Z,12.58
2019-04-05T13:59:47.173Z,12.58
2019-04-05T14:02:21.152Z,11.90
2019-04-05T14:04:54.905Z,12.28
2019-04-05T14:07:26.793Z,12.30
2019-04-05T14:09:58.260Z,12.47
2019-04-05T14:12:31.273Z,12.32
2019-04-05T14:15:02.976Z,12.36
2019-04-05T14:17:35.010Z,12.35
2019-04-05T14:20:09.479Z,11.35
2019-04-05T14:22:41.277Z,11.46
2019-04-05T14:25:13.164Z,10.91
2019-04-05T14:27:45.228Z,11.45
2019-04-05T14:30:17.183Z,11.48
2019-04-05T14:32:51.091Z,11.20
2019-04-05T14:35:24.374Z,11.29
2019-04-05T14:37:56.362Z,11.44
2019-04-05T14:40:28.932Z,11.08
2019-04-05T14:43:02.804Z,11.09
2019-04-05T14:45:34.159Z,11.46
2019-04-05T14:48:06.812Z,11.42
2019-04-05T14:50:38.621Z,11.37
2019-04-05T14:53:10.181Z,11.58
2019-04-05T14:55:42.847Z,11.60
2019-04-05T14:58:15.857Z,11.61
2019-04-05T15:00:54.000Z,10.94
2019-04-05T15:03:25.553Z,11.17
2019-04-05T15:05:56.962Z,11.41
2019-04-05T15:08:28.619Z,11.41
2019-04-05T15:11:00.642Z,11.37
2019-04-05T15:13:32.351Z,11.40
2019-04-05T15:16:04.871Z,11.48
2019-04-05T15:18:36.710Z,11.48
2019-04-05T15:21:08.286Z,11.52
2019-04-05T15:23:41.463Z,11.46
2019-04-05T15:26:14.622Z,10.97
2019-04-05T15:28:47.814Z,10.48
2019-04-05T15:31:19.541Z,10.49
2019-04-05T15:33:51.650Z,10.51
2019-04-05T15:36:23.787Z,10.76
2019-04-05T15:38:55.678Z,10.61
2019-04-05T15:41:27.042Z,10.71
2019-04-05T15:43:58.417Z,10.69
2019-04-05T15:46:29.899Z,10.58
2019-04-05T15:49:01.260Z,10.67
2019-04-05T15:51:33.044Z,10.65
2019-04-05T15:54:05.290Z,10.49
2019-04-05T15:56:36.656Z,10.49
2019-04-05T15:59:08.823Z,10.31
2019-04-05T16:01:40.321Z,10.19
2019-04-05T16:04:12.130Z,10.41
2019-04-05T16:06:43.524Z,10.27
2019-04-05T16:09:18.288Z,10.44
2019-04-05T16:11:49.608Z,10.37
2019-04-05T16:14:21.243Z,10.41
2019-04-05T16:16:53.771Z,10.34
2019-04-05T16:19:25.225Z,10.42
2019-04-05T16:21:56.671Z,10.35
2019-04-05T16:24:29.345Z,10.43
2019-04-05T16:27:01.150Z,10.40
2019-04-05T16:29:33.285Z,10.42
2019-04-05T16:32:04.673Z,10.42
2019-04-05T16:34:36.105Z,10.48
2019-04-05T16:37:08.334Z,10.38
2019-04-05T16:39:39.832Z,10.41
2019-04-05T16:42:11.215Z,10.46
2019-04-05T16:44:43.030Z,10.25
2019-04-05T16:47:14.361Z,10.33
2019-04-05T16:49:46.198Z,10.33
2019-04-05T16:52:17.530Z,10.17
2019-04-05T16:54:48.945Z,10.29
2019-04-05T16:57:20.678Z,10.29
2019-04-05T16:59:52.606Z,10.39
2019-04-05T17:02:23.995Z,10.29
2019-04-05T17:04:55.457Z,10.34
2019-04-05T17:07:27.725Z,10.30
2019-04-05T17:09:59.415Z,10.18
2019-04-05T17:12:31.753Z,10.12
2019-04-05T17:15:03.235Z,10.18
2019-04-05T17:17:34.667Z,10.11
2019-04-05T17:20:07.373Z,10.06
2019-04-05T17:22:40.566Z,10.02
2019-04-05T17:25:13.182Z,10.21
2019-04-05T17:27:45.034Z,10.26
2019-04-05T17:30:17.109Z,10.29
2019-04-05T17:32:49.181Z,10.17
2019-04-05T17:35:21.093Z,10.19
2019-04-05T17:37:52.781Z,10.20
2019-04-05T17:40:24.098Z,10.11
2019-04-05T17:42:56.286Z,10.16
2019-04-05T17:45:27.750Z,10.08
2019-04-05T17:47:59.103Z,10.05
2019-04-05T17:50:35.827Z,10.10
2019-04-05T17:53:12.818Z,10.06
2019-04-05T17:55:41.568Z,9.94
2019-04-05T17:58:13.392Z,9.95
2019-04-05T18:00:45.303Z,9.93
2019-04-05T18:03:18.240Z,9.90
2019-04-05T18:05:50.147Z,9.88
2019-04-05T18:08:22.751Z,9.81
2019-04-05T18:10:54.265Z,9.81
2019-04-05T18:13:27.301Z,9.75
2019-04-05T18:15:59.498Z,9.77
2019-04-05T18:18:30.802Z,9.72
2019-04-05T18:21:02.211Z,9.72
2019-04-05T18:23:34.481Z,9.64
2019-04-05T18:26:06.445Z,9.63
2019-04-05T18:28:38.289Z,9.60
2019-04-05T18:31:09.818Z,9.60
2019-04-05T18:33:41.542Z,9.61
2019-04-05T18:36:13.713Z,9.61
2019-04-05T18:38:45.132Z,9.57
2019-04-05T18:41:16.743Z,9.51
2019-04-05T18:43:48.563Z,9.50
2019-04-05T18:46:20.695Z,9.51
2019-04-05T18:48:52.435Z,9.46
2019-04-05T18:51:24.155Z,9.44
2019-04-05T18:53:56.303Z,9.43
2019-04-05T18:56:27.774Z,9.42
2019-04-05T18:59:01.972Z,9.41
2019-04-05T19:01:33.759Z,9.39
2019-04-05T19:04:05.644Z,9.36
2019-04-05T19:06:37.961Z,9.35
2019-04-05T19:09:11.905Z,9.29
2019-04-05T19:11:43.390Z,9.33
2019-04-05T19:14:14.739Z,9.31
2019-04-05T19:16:46.531Z,9.28
2019-04-05T19:19:18.541Z,9.30
2019-04-05T19:21:49.949Z,9.32
2019-04-05T19:24:22.184Z,9.34
2019-04-05T19:26:53.607Z,9.36
2019-04-05T19:29:26.598Z,9.34
2019-04-05T19:49:52.476Z,9.27
2019-04-05T19:52:24.395Z,9.24
2019-04-05T19:54:56.518Z,9.23
2019-04-05T19:57:28.061Z,9.21
2019-04-05T19:59:59.793Z,9.12
2019-04-05T20:02:31.503Z,9.08
2019-04-05T20:05:03.021Z,9.05
2019-04-05T20:07:35.909Z,9.01
2019-04-05T20:10:07.964Z,8.98
2019-04-05T20:12:39.721Z,8.92
2019-04-05T20:15:12.099Z,8.74
2019-04-05T20:17:44.045Z,8.74
2019-04-05T20:20:15.664Z,8.66
2019-04-05T20:22:47.482Z,8.58
2019-04-05T20:25:19.092Z,8.54
2019-04-05T20:27:50.667Z,8.48
2019-04-05T20:30:22.064Z,8.36
2019-04-05T20:32:54.030Z,8.29
2019-04-05T20:35:26.645Z,8.24
2019-04-05T20:37:58.498Z,8.15
2019-04-05T20:40:30.016Z,8.09
2019-04-05T20:43:01.958Z,8.03
2019-04-05T20:45:33.540Z,7.89
2019-04-05T20:48:05.067Z,7.82
2019-04-05T20:50:36.888Z,7.74
2019-04-05T20:53:08.498Z,7.70
2019-04-05T20:55:39.928Z,7.63
2019-04-05T20:58:11.821Z,7.58
2019-04-05T21:00:43.610Z,7.52
2019-04-05T21:03:15.032Z,7.47
2019-04-05T21:05:46.969Z,7.41
2019-04-05T21:08:18.384Z,7.33
2019-04-05T21:10:49.991Z,7.23
2019-04-05T21:13:21.674Z,7.19
2019-04-05T21:15:53.948Z,7.15
2019-04-05T21:18:25.871Z,7.12
2019-04-05T21:20:57.399Z,7.01
2019-04-05T21:23:28.767Z,7.02
2019-04-05T21:26:00.287Z,6.99
2019-04-05T21:28:32.483Z,6.90
2019-04-05T21:31:05.004Z,6.90
2019-04-05T21:33:36.766Z,6.88
2019-04-05T21:36:08.130Z,6.85
2019-04-05T21:38:39.667Z,6.78
2019-04-05T21:41:13.282Z,6.72
2019-04-05T21:43:44.709Z,6.78
2019-04-05T21:46:16.076Z,6.83
2019-04-05T21:48:50.036Z,6.68
2019-04-05T21:51:21.386Z,6.61
2019-04-05T21:53:53.482Z,6.52
2019-04-05T21:56:25.188Z,6.51
2019-04-05T21:58:58.626Z,6.44
2019-04-05T22:01:31.173Z,6.37
2019-04-05T22:04:02.874Z,6.24
2019-04-05T22:06:34.747Z,6.12
2019-04-05T22:09:09.859Z,6.19
2019-04-05T22:11:41.828Z,6.13
2019-04-05T22:14:14.074Z,6.20
2019-04-05T22:16:45.678Z,6.12
2019-04-05T22:19:17.500Z,6.04
2019-04-05T22:21:49.374Z,6.01
2019-04-05T22:24:20.944Z,6.01
2019-04-05T22:26:53.219Z,5.94
2019-04-05T22:29:25.533Z,5.93
2019-04-05T22:31:57.362Z,5.88
2019-04-05T22:34:28.926Z,5.79
2019-04-05T22:37:00.364Z,5.74
2019-04-05T22:39:32.033Z,5.70
2019-04-05T22:42:03.832Z,5.65
2019-04-05T22:44:39.943Z,5.68
2019-04-05T22:47:09.146Z,5.61
2019-04-05T22:49:40.536Z,5.57
2019-04-05T22:52:12.869Z,5.53
2019-04-05T22:54:44.257Z,5.48
2019-04-05T22:57:15.713Z,5.43
2019-04-05T22:59:47.298Z,5.35
2019-04-05T23:02:18.728Z,5.35
2019-04-05T23:04:50.251Z,5.33
2019-04-05T23:07:22.304Z,5.33
2019-04-05T23:09:53.787Z,5.34
2019-04-05T23:12:25.270Z,5.33
2019-04-05T23:14:57.947Z,5.28
2019-04-05T23:17:29.898Z,5.24
2019-04-05T23:20:02.827Z,5.18
2019-04-05T23:22:34.255Z,5.16
2019-04-05T23:25:05.727Z,5.18
2019-04-05T23:27:37.673Z,5.18
2019-04-05T23:30:10.388Z,5.19
2019-04-05T23:32:42.158Z,5.10
2019-04-05T23:35:14.823Z,5.06
2019-04-05T23:37:46.945Z,5.03
2019-04-05T23:40:19.477Z,4.99
2019-04-05T23:42:50.876Z,4.98
2019-04-05T23:45:22.686Z,4.94
2019-04-05T23:47:54.264Z,4.89
2019-04-05T23:50:26.728Z,4.92
2019-04-05T23:52:58.708Z,4.87
2019-04-05T23:55:33.462Z,4.87
2019-04-05T23:58:03.548Z,4.81
